Time;durP1;ratioP1;P1;durP2;ratioP2;P2;SDS_P1;SDS_P2;PMS_P1;PMS_P2;Temp;Humidity;BMP_temperature;BMP_pressure;BME280_temperature;BME280_humidity;BME280_pressure;Samples;Min_cycle;Max_cycle;Signal;HPM_P1;HPM_P2
2021/05/19 00:01:24;;;;;;;3.85;3.42;;;11.20;99.90;;;;;;4861042;29;20189;-93
2021/05/19 00:03:50;;;;;;;3.92;3.45;;;11.10;99.90;;;;;;4861047;29;20216;-93
2021/05/19 00:06:17;;;;;;;4.30;3.70;;;11.10;99.90;;;;;;4861144;29;20179;-92
2021/05/19 00:08:43;;;;;;;4.32;3.63;;;11.10;99.90;;;;;;4861150;29;20205;-93
2021/05/19 00:11:09;;;;;;;4.95;3.92;;;11.10;99.90;;;;;;4861375;29;20521;-92
2021/05/19 00:13:38;;;;;;;4.82;4.10;;;11.00;99.90;;;;;;4861186;29;20209;-92
2021/05/19 00:16:09;;;;;;;5.57;4.50;;;11.00;99.90;;;;;;4861025;29;20229;-91
2021/05/19 00:18:35;;;;;;;5.93;4.40;;;11.00;99.90;;;;;;4861048;29;20280;-95
2021/05/19 00:21:03;;;;;;;6.13;4.18;;;11.00;99.90;;;;;;4861124;29;20184;-91
2021/05/19 00:23:28;;;;;;;5.17;4.47;;;10.90;99.90;;;;;;4860662;29;20236;-92
2021/05/19 00:25:54;;;;;;;6.32;4.40;;;10.90;99.90;;;;;;4860926;29;20192;-91
2021/05/19 00:28:21;;;;;;;5.45;4.88;;;10.90;99.90;;;;;;4860796;29;20245;-93
2021/05/19 00:30:52;;;;;;;4.47;4.07;;;10.80;99.90;;;;;;4860706;29;20176;-93
2021/05/19 00:33:19;;;;;;;5.23;4.53;;;10.80;99.90;;;;;;4860807;29;20215;-91
2021/05/19 00:35:44;;;;;;;5.83;4.90;;;10.80;99.90;;;;;;4860793;29;20169;-91
2021/05/19 00:38:10;;;;;;;4.93;4.20;;;10.80;99.90;;;;;;4860824;29;20648;-93
2021/05/19 00:40:36;;;;;;;5.78;4.70;;;10.80;99.90;;;;;;4860191;29;20567;-93
2021/05/19 00:43:02;;;;;;;5.43;4.63;;;10.70;99.90;;;;;;4860594;29;20240;-92
2021/05/19 00:45:28;;;;;;;7.50;4.70;;;10.70;99.90;;;;;;4860648;29;20527;-91
2021/05/19 00:47:54;;;;;;;5.05;4.50;;;10.70;99.90;;;;;;4860695;29;20608;-92
2021/05/19 00:50:30;;;;;;;6.53;5.03;;;10.60;99.90;;;;;;4860874;29;20181;-92
2021/05/19 00:52:56;;;;;;;5.50;4.37;;;10.60;99.90;;;;;;4846427;29;20215;-92
2021/05/19 00:55:22;;;;;;;5.93;4.80;;;10.50;99.90;;;;;;4845134;29;20181;-93
2021/05/19 00:57:51;;;;;;;5.20;4.70;;;10.50;99.90;;;;;;4845134;29;20184;-91
2021/05/19 01:00:18;;;;;;;5.27;4.30;;;10.50;99.90;;;;;;4845094;29;20664;-92
2021/05/19 01:02:44;;;;;;;5.50;5.00;;;10.50;99.90;;;;;;4844941;29;20208;-91
2021/05/19 01:05:22;;;;;;;6.43;4.70;;;10.40;99.90;;;;;;4845148;29;20181;-91
2021/05/19 01:10:32;;;;;;;5.30;4.80;;;10.30;99.90;;;;;;4861752;29;20181;-92
2021/05/19 01:13:01;;;;;;;6.23;5.17;;;10.20;99.90;;;;;;4845106;29;20208;-91
2021/05/19 01:15:26;;;;;;;5.70;4.80;;;10.20;99.90;;;;;;4845221;29;20332;-93
2021/05/19 01:17:54;;;;;;;5.70;4.43;;;10.10;99.90;;;;;;4845010;29;20217;-91
2021/05/19 01:20:20;;;;;;;10.73;5.40;;;10.10;99.90;;;;;;4845208;29;20189;-92
2021/05/19 01:22:46;;;;;;;6.13;4.93;;;10.00;99.90;;;;;;4844751;29;20247;-93
2021/05/19 01:25:12;;;;;;;6.07;5.10;;;10.00;99.90;;;;;;4845229;29;20181;-92
2021/05/19 01:27:39;;;;;;;5.60;4.60;;;10.00;99.90;;;;;;4845083;29;20237;-93
2021/05/19 01:30:07;;;;;;;5.80;4.87;;;10.00;99.90;;;;;;4845181;29;20181;-93
2021/05/19 01:32:33;;;;;;;6.63;5.43;;;10.00;99.90;;;;;;4845197;29;20257;-93
2021/05/19 01:34:59;;;;;;;7.13;4.90;;;10.00;99.90;;;;;;4845048;29;20220;-93
2021/05/19 01:37:25;;;;;;;6.10;5.30;;;10.00;99.90;;;;;;4845021;29;20212;-93
2021/05/19 01:39:51;;;;;;;6.30;5.70;;;10.00;99.90;;;;;;4844833;29;20520;-92
2021/05/19 01:42:17;;;;;;;5.43;4.80;;;9.90;99.90;;;;;;4844792;29;20243;-93
2021/05/19 01:44:43;;;;;;;5.53;4.93;;;10.00;99.90;;;;;;4844927;29;20181;-91
2021/05/19 01:47:10;;;;;;;6.20;5.60;;;10.00;99.90;;;;;;4844837;29;20192;-93
2021/05/19 01:49:43;;;;;;;6.40;5.33;;;10.00;99.90;;;;;;4844542;29;20213;-93
2021/05/19 01:52:11;;;;;;;6.83;5.23;;;10.00;99.90;;;;;;4836053;29;20216;-94
2021/05/19 01:54:38;;;;;;;6.60;5.43;;;10.00;99.90;;;;;;4829686;29;20216;-93
2021/05/19 01:57:07;;;;;;;6.43;5.27;;;9.90;99.90;;;;;;4829656;29;20185;-91
2021/05/19 01:59:33;;;;;;;7.17;5.77;;;9.90;99.90;;;;;;4829524;29;20189;-93
2021/05/19 02:01:59;;;;;;;9.80;6.53;;;9.90;99.90;;;;;;4829643;29;20213;-92
2021/05/19 02:04:26;;;;;;;6.43;5.77;;;9.90;99.90;;;;;;4829491;29;20683;-91
2021/05/19 02:06:57;;;;;;;6.57;5.87;;;9.80;99.90;;;;;;4829497;29;20194;-94
2021/05/19 02:09:24;;;;;;;6.93;5.83;;;9.90;99.90;;;;;;4829325;29;20213;-93
2021/05/19 02:11:51;;;;;;;7.40;6.57;;;9.80;99.90;;;;;;4829399;29;20185;-91
2021/05/19 02:14:18;;;;;;;7.53;6.20;;;9.70;99.90;;;;;;4829418;29;20182;-91
2021/05/19 02:16:45;;;;;;;7.83;5.93;;;9.70;99.90;;;;;;4829303;29;20181;-92
2021/05/19 02:19:12;;;;;;;6.60;5.53;;;9.60;99.90;;;;;;4829338;29;20617;-91
2021/05/19 02:21:46;;;;;;;6.97;5.80;;;9.60;99.90;;;;;;4829019;29;20189;-91
2021/05/19 02:24:12;;;;;;;8.53;6.40;;;9.60;99.90;;;;;;4829215;29;20191;-95
2021/05/19 02:26:40;;;;;;;7.00;6.27;;;9.60;99.90;;;;;;4829166;29;20206;-93
2021/05/19 02:29:06;;;;;;;7.37;6.53;;;9.60;99.90;;;;;;4828878;29;20300;-93
2021/05/19 02:31:33;;;;;;;7.83;6.93;;;9.60;99.90;;;;;;4829214;29;20289;-92
2021/05/19 02:34:00;;;;;;;8.07;6.97;;;9.60;99.90;;;;;;4828860;29;20209;-91
2021/05/19 02:36:26;;;;;;;10.00;7.53;;;9.70;99.90;;;;;;4828972;29;20196;-94
2021/05/19 02:38:53;;;;;;;9.13;7.77;;;9.70;99.90;;;;;;4828860;29;20268;-92
2021/05/19 02:41:19;;;;;;;9.07;7.50;;;9.70;99.90;;;;;;4828943;29;20234;-93
2021/05/19 02:43:45;;;;;;;8.97;7.20;;;9.70;99.90;;;;;;4828832;29;20213;-93
2021/05/19 02:46:12;;;;;;;8.87;7.97;;;9.70;99.90;;;;;;4828907;29;20553;-91
2021/05/19 02:48:39;;;;;;;11.33;8.80;;;9.70;99.90;;;;;;4828695;29;20209;-93
2021/05/19 02:51:05;;;;;;;11.03;9.33;;;9.70;99.90;;;;;;4828936;29;20815;-92
2021/05/19 02:53:31;;;;;;;10.93;9.43;;;9.70;99.90;;;;;;4828501;29;20693;-92
2021/05/19 02:55:57;;;;;;;10.50;9.33;;;9.70;99.90;;;;;;4828685;29;20228;-92
2021/05/19 02:58:24;;;;;;;12.97;9.90;;;9.70;99.90;;;;;;4828588;29;20213;-92
2021/05/19 03:00:51;;;;;;;14.30;9.87;;;9.80;99.90;;;;;;4828827;29;20209;-94
2021/05/19 03:03:16;;;;;;;12.10;10.60;;;9.80;99.90;;;;;;4827892;29;20209;-92
2021/05/19 03:05:42;;;;;;;12.77;10.20;;;9.80;99.90;;;;;;4828724;29;20238;-93
2021/05/19 03:08:08;;;;;;;11.13;9.93;;;9.80;99.90;;;;;;4828605;29;20305;-93
2021/05/19 03:10:35;;;;;;;12.80;10.53;;;9.80;99.90;;;;;;4828798;29;20268;-93
2021/05/19 03:13:04;;;;;;;11.63;10.43;;;9.80;99.90;;;;;;4828593;29;20201;-91
2021/05/19 03:15:30;;;;;;;11.53;10.27;;;9.80;99.90;;;;;;4828441;29;20178;-91
2021/05/19 03:17:56;;;;;;;11.73;10.07;;;9.80;99.90;;;;;;4828743;29;20181;-91
2021/05/19 03:20:23;;;;;;;12.83;10.57;;;9.80;99.90;;;;;;4828400;29;20177;-92
2021/05/19 03:22:48;;;;;;;13.70;11.63;;;9.80;99.90;;;;;;4825461;29;20247;-91
2021/05/19 03:25:14;;;;;;;15.10;11.97;;;9.80;99.90;;;;;;4825645;29;20268;-93
2021/05/19 03:27:40;;;;;;;12.90;10.77;;;9.70;99.90;;;;;;4825513;29;20182;-93
2021/05/19 03:30:10;;;;;;;12.77;10.93;;;9.70;99.90;;;;;;4825331;29;20249;-93
2021/05/19 03:32:36;;;;;;;13.17;11.70;;;9.70;99.90;;;;;;4825108;29;20229;-91
2021/05/19 03:35:03;;;;;;;12.40;11.10;;;9.70;99.90;;;;;;4824930;29;20597;-91
2021/05/19 03:37:29;;;;;;;13.57;11.57;;;9.60;99.90;;;;;;4825086;29;20170;-92
2021/05/19 03:39:55;;;;;;;14.80;12.13;;;9.60;99.90;;;;;;4825081;29;20654;-93
2021/05/19 03:42:21;;;;;;;13.47;11.73;;;9.60;99.90;;;;;;4824763;29;20213;-92
2021/05/19 03:44:46;;;;;;;13.47;11.63;;;9.60;99.90;;;;;;4824830;29;20277;-92
2021/05/19 03:47:13;;;;;;;13.20;11.77;;;9.60;99.90;;;;;;4824913;29;20266;-92
2021/05/19 03:49:40;;;;;;;12.47;11.17;;;9.50;99.90;;;;;;4824543;29;20749;-92
2021/05/19 03:52:07;;;;;;;13.43;11.23;;;9.50;99.90;;;;;;4834544;29;20232;-93
2021/05/19 03:54:34;;;;;;;13.27;11.30;;;9.50;99.90;;;;;;4844029;29;20189;-93
2021/05/19 03:57:05;;;;;;;13.77;12.00;;;9.50;99.90;;;;;;4842765;29;20272;-91
2021/05/19 03:59:32;;;;;;;14.67;12.50;;;9.50;99.90;;;;;;4842861;29;20191;-91
2021/05/19 04:01:57;;;;;;;15.97;12.13;;;9.50;99.90;;;;;;4842859;29;20197;-93
2021/05/19 04:04:23;;;;;;;13.93;11.73;;;9.50;99.90;;;;;;4842807;29;20280;-92
2021/05/19 04:06:50;;;;;;;13.60;12.17;;;9.60;99.90;;;;;;4842983;29;20214;-93
2021/05/19 04:09:16;;;;;;;12.97;11.63;;;9.60;99.90;;;;;;4842585;29;20204;-92
2021/05/19 04:11:42;;;;;;;13.47;11.47;;;9.70;99.90;;;;;;4842534;29;20173;-93
2021/05/19 04:14:08;;;;;;;14.00;11.60;;;9.80;99.90;;;;;;4842321;29;20197;-92
2021/05/19 04:16:34;;;;;;;11.97;10.70;;;9.80;99.90;;;;;;4842389;29;20220;-94
2021/05/19 04:19:00;;;;;;;13.40;10.93;;;10.00;99.90;;;;;;4842409;29;20193;-92
2021/05/19 04:21:26;;;;;;;15.73;11.53;;;10.10;99.90;;;;;;4842518;29;20189;-93
2021/05/19 04:23:52;;;;;;;11.40;10.20;;;10.20;99.90;;;;;;4842401;29;20834;-92
2021/05/19 04:26:18;;;;;;;11.30;10.10;;;10.20;99.90;;;;;;4842453;29;20268;-92
2021/05/19 04:28:44;;;;;;;13.90;10.60;;;10.30;99.90;;;;;;4842268;29;20213;-92
2021/05/19 04:31:11;;;;;;;11.43;10.20;;;10.40;99.90;;;;;;4842591;29;20180;-91
2021/05/19 04:33:37;;;;;;;15.40;10.50;;;10.40;99.90;;;;;;4842365;29;20205;-92
2021/05/19 04:36:03;;;;;;;10.83;9.30;;;10.50;99.90;;;;;;4842506;29;20203;-92
2021/05/19 04:38:29;;;;;;;10.70;9.03;;;10.50;99.90;;;;;;4842212;29;20182;-93
2021/05/19 04:40:55;;;;;;;9.90;8.87;;;10.60;99.90;;;;;;4842354;29;20188;-91
2021/05/19 04:43:21;;;;;;;9.90;8.50;;;10.70;99.90;;;;;;4842077;29;20734;-92
2021/05/19 04:45:46;;;;;;;10.33;9.23;;;10.80;99.90;;;;;;4842160;29;20184;-93
2021/05/19 04:48:13;;;;;;;10.50;8.98;;;10.90;99.90;;;;;;4842053;29;20645;-94
2021/05/19 04:50:39;;;;;;;9.97;8.33;;;10.90;99.90;;;;;;4841998;29;20173;-92
2021/05/19 04:53:05;;;;;;;13.00;8.97;;;11.00;99.90;;;;;;4842018;29;20205;-92
2021/05/19 04:55:31;;;;;;;11.18;8.95;;;11.10;99.90;;;;;;4842478;29;20181;-93
2021/05/19 04:58:00;;;;;;;9.68;8.43;;;11.10;99.90;;;;;;4842154;29;20280;-92
2021/05/19 05:00:26;;;;;;;9.37;8.37;;;11.10;99.90;;;;;;4842111;29;20220;-91
2021/05/19 05:02:52;;;;;;;10.20;8.10;;;11.10;99.90;;;;;;4842111;29;20615;-94
2021/05/19 05:05:18;;;;;;;10.05;8.95;;;11.10;99.90;;;;;;4842210;29;20185;-91
2021/05/19 05:07:44;;;;;;;10.95;9.80;;;11.10;99.90;;;;;;4842518;29;20567;-90
2021/05/19 05:10:11;;;;;;;12.67;9.97;;;11.10;99.90;;;;;;4842350;29;20170;-93
2021/05/19 05:12:38;;;;;;;12.95;10.60;;;11.10;99.90;;;;;;4842808;29;20685;-94
2021/05/19 05:15:06;;;;;;;12.27;9.43;;;11.20;99.90;;;;;;4846700;29;20267;-94
2021/05/19 05:17:32;;;;;;;12.23;10.93;;;11.10;99.90;;;;;;4844908;29;20186;-94
2021/05/19 05:19:58;;;;;;;13.25;10.25;;;11.20;99.90;;;;;;4842077;29;20181;-93
2021/05/19 05:22:24;;;;;;;13.00;9.63;;;11.10;99.90;;;;;;4841914;29;20268;-92
2021/05/19 05:24:50;;;;;;;12.30;9.97;;;11.10;99.90;;;;;;4841753;29;20213;-92
2021/05/19 05:27:16;;;;;;;11.47;9.77;;;11.20;99.90;;;;;;4844254;29;20185;-92
2021/05/19 05:29:42;;;;;;;13.55;11.13;;;11.20;99.90;;;;;;4846653;29;20197;-94
2021/05/19 05:32:16;;;;;;;11.15;9.55;;;11.20;99.90;;;;;;4845465;29;20561;-93
2021/05/19 05:34:51;;;;;;;11.82;10.48;;;11.20;99.90;;;;;;4846141;29;20177;-92
2021/05/19 05:37:31;;;;;;;13.63;10.55;;;11.30;99.90;;;;;;4846127;29;20173;-93
2021/05/19 05:39:56;;;;;;;12.02;9.88;;;11.30;99.90;;;;;;4845624;29;20181;-94
2021/05/19 05:42:28;;;;;;;12.38;10.35;;;11.30;99.90;;;;;;4845781;29;20205;-93
2021/05/19 05:45:13;;;;;;;11.23;9.48;;;11.30;99.90;;;;;;4845921;29;20185;-93
2021/05/19 05:47:39;;;;;;;12.40;10.10;;;11.30;99.90;;;;;;4845622;29;20181;-93
2021/05/19 05:50:06;;;;;;;14.23;10.10;;;11.20;99.90;;;;;;4845393;29;20602;-92
2021/05/19 05:52:31;;;;;;;12.95;10.77;;;11.20;99.90;;;;;;4845211;29;20205;-92
2021/05/19 05:54:57;;;;;;;12.07;10.57;;;11.20;99.90;;;;;;4845191;29;20186;-92
2021/05/19 05:57:26;;;;;;;12.83;10.20;;;11.20;99.90;;;;;;4844856;29;20257;-91
2021/05/19 05:59:52;;;;;;;14.20;10.65;;;11.10;99.90;;;;;;4845195;29;20657;-92
2021/05/19 06:02:18;;;;;;;13.38;9.90;;;11.20;99.90;;;;;;4844638;29;20210;-93
2021/05/19 06:04:44;;;;;;;11.88;10.65;;;11.20;99.90;;;;;;4844496;29;20201;-93
2021/05/19 06:07:11;;;;;;;10.90;9.68;;;11.20;99.90;;;;;;4844945;29;20174;-94
2021/05/19 06:09:36;;;;;;;11.95;10.18;;;11.20;99.90;;;;;;4844533;29;20284;-93
2021/05/19 06:12:03;;;;;;;11.63;9.70;;;11.20;99.90;;;;;;4844701;29;20611;-93
2021/05/19 06:14:28;;;;;;;11.70;10.07;;;11.30;99.90;;;;;;4845057;29;20256;-91
2021/05/19 06:16:55;;;;;;;11.90;10.15;;;11.30;99.90;;;;;;4844786;29;20197;-90
2021/05/19 06:19:21;;;;;;;12.90;10.02;;;11.40;99.90;;;;;;4844616;29;20627;-92
2021/05/19 06:21:47;;;;;;;10.45;9.13;;;11.50;99.90;;;;;;4844499;29;20222;-92
2021/05/19 06:24:13;;;;;;;10.60;9.50;;;11.50;99.90;;;;;;4847289;29;20192;-92
2021/05/19 06:26:38;;;;;;;11.45;9.73;;;11.50;99.90;;;;;;4847471;29;20177;-91
2021/05/19 06:29:04;;;;;;;12.23;10.40;;;11.50;99.90;;;;;;4847422;29;20284;-92
2021/05/19 06:31:30;;;;;;;12.10;10.45;;;11.60;99.90;;;;;;4847513;29;20181;-91
2021/05/19 06:33:56;;;;;;;11.57;10.07;;;11.60;99.90;;;;;;4847425;29;20215;-94
2021/05/19 06:36:22;;;;;;;11.77;9.77;;;11.50;99.90;;;;;;4847700;29;20177;-94
2021/05/19 06:38:48;;;;;;;13.20;10.48;;;11.60;99.90;;;;;;4846524;29;20189;-93
2021/05/19 06:41:13;;;;;;;12.75;10.25;;;11.50;99.90;;;;;;4847337;29;20183;-93
2021/05/19 06:43:39;;;;;;;12.43;10.13;;;11.50;99.90;;;;;;4847207;29;20207;-91
2021/05/19 06:46:05;;;;;;;13.88;10.13;;;11.50;99.90;;;;;;4847180;29;20685;-94
2021/05/19 06:48:31;;;;;;;11.15;9.88;;;11.50;99.90;;;;;;4839983;29;20209;-92
2021/05/19 06:51:06;;;;;;;11.93;10.27;;;11.50;99.90;;;;;;4828716;29;20173;-93
2021/05/19 06:53:40;;;;;;;11.32;9.88;;;11.50;99.90;;;;;;4829005;29;20287;-93
2021/05/19 06:56:08;;;;;;;11.55;9.73;;;11.60;99.90;;;;;;4828831;29;20180;-93
2021/05/19 06:58:53;;;;;;;14.00;10.38;;;11.60;99.90;;;;;;4829194;29;20238;-94
2021/05/19 07:01:41;;;;;;;12.07;10.80;;;11.70;99.90;;;;;;4829114;29;20263;-93
2021/05/19 07:04:07;;;;;;;10.82;9.30;;;11.70;99.90;;;;;;4828485;29;20235;-93
2021/05/19 07:06:33;;;;;;;11.57;9.80;;;11.80;99.90;;;;;;4828253;29;20181;-92
2021/05/19 07:08:59;;;;;;;11.98;10.52;;;11.80;99.90;;;;;;4828597;29;20209;-91
2021/05/19 07:11:25;;;;;;;12.77;9.82;;;11.90;99.90;;;;;;4828665;29;20196;-92
2021/05/19 07:13:54;;;;;;;14.02;10.20;;;11.90;99.90;;;;;;4828388;29;20299;-91
2021/05/19 07:16:23;;;;;;;11.45;9.45;;;12.10;99.90;;;;;;4828363;29;20183;-92
2021/05/19 07:18:49;;;;;;;12.23;9.70;;;12.10;99.90;;;;;;4829712;29;20185;-94
2021/05/19 07:21:15;;;;;;;12.43;9.30;;;12.20;99.90;;;;;;4832831;29;20177;-95
2021/05/19 07:23:41;;;;;;;10.93;8.73;;;12.50;99.90;;;;;;4842327;29;20277;-91
2021/05/19 07:26:07;;;;;;;10.63;8.73;;;12.70;99.90;;;;;;4843278;29;20177;-94
2021/05/19 07:28:34;;;;;;;9.88;8.60;;;13.10;99.90;;;;;;4844356;29;20233;-91
2021/05/19 07:31:00;;;;;;;12.35;8.95;;;13.30;99.90;;;;;;4831387;29;20215;-91
2021/05/19 07:33:26;;;;;;;9.88;8.65;;;13.40;99.90;;;;;;4824986;29;20209;-91
2021/05/19 07:35:52;;;;;;;10.10;8.18;;;13.30;99.90;;;;;;4824922;29;20255;-93
2021/05/19 07:38:17;;;;;;;10.15;8.68;;;13.20;99.90;;;;;;4825051;29;20190;-92
2021/05/19 07:40:44;;;;;;;9.45;8.38;;;13.20;99.90;;;;;;4824923;29;20630;-93
2021/05/19 07:43:10;;;;;;;9.02;7.97;;;13.20;99.90;;;;;;4824993;29;20210;-92
2021/05/19 07:45:37;;;;;;;10.73;8.50;;;13.10;99.90;;;;;;4824785;29;20550;-93
2021/05/19 07:48:04;;;;;;;10.32;8.25;;;13.10;99.90;;;;;;4824696;29;20201;-92
2021/05/19 07:50:29;;;;;;;10.32;8.32;;;13.10;99.90;;;;;;4824922;29;20170;-93
2021/05/19 07:52:56;;;;;;;8.77;7.88;;;13.10;99.90;;;;;;4824686;29;20713;-93
2021/05/19 07:57:58;;;;;;;9.93;8.10;;;13.10;99.90;;;;;;4844512;29;20185;-93
2021/05/19 08:03:04;;;;;;;9.40;7.63;;;13.00;99.90;;;;;;4844308;29;20201;-93
2021/05/19 08:05:30;;;;;;;8.73;7.82;;;12.90;99.90;;;;;;4843328;29;20199;-93
2021/05/19 08:07:57;;;;;;;10.57;8.13;;;12.80;99.90;;;;;;4843239;29;20685;-93
2021/05/19 08:10:23;;;;;;;10.80;7.45;;;12.70;99.90;;;;;;4842730;29;20193;-95
2021/05/19 08:12:49;;;;;;;10.95;7.97;;;12.70;99.90;;;;;;4845199;29;20201;-92
2021/05/19 08:15:15;;;;;;;10.02;7.80;;;12.70;99.90;;;;;;4845427;29;20178;-94
2021/05/19 08:17:41;;;;;;;9.80;7.78;;;12.50;99.90;;;;;;4844685;29;20265;-95
2021/05/19 08:20:08;;;;;;;8.73;7.65;;;12.50;99.90;;;;;;4842866;29;20212;-94
2021/05/19 08:22:33;;;;;;;8.82;6.90;;;12.40;99.90;;;;;;4843684;29;20240;-93
2021/05/19 08:24:59;;;;;;;10.68;7.28;;;12.30;99.90;;;;;;4844661;29;20634;-96
2021/05/19 08:27:26;;;;;;;11.30;7.40;;;12.30;99.90;;;;;;4843081;29;20253;-95
2021/05/19 08:30:12;;;;;;;8.63;7.28;;;12.40;99.90;;;;;;4844374;29;20237;-96
2021/05/19 08:32:39;;;;;;;9.43;7.85;;;12.70;99.90;;;;;;4848819;29;20205;-94
2021/05/19 08:35:06;;;;;;;11.70;7.30;;;13.30;99.90;;;;;;4844441;29;20184;-92
2021/05/19 08:37:40;;;;;;;12.95;7.25;;;13.70;99.90;;;;;;4845634;29;20257;-95
2021/05/19 08:40:14;;;;;;;9.35;6.45;;;14.20;99.90;;;;;;4844096;29;20209;-94
2021/05/19 08:42:39;;;;;;;8.30;7.30;;;14.40;99.90;;;;;;4843342;29;20665;-94
2021/05/19 08:45:08;;;;;;;8.82;7.05;;;14.30;99.90;;;;;;4845715;29;20174;-93
2021/05/19 08:47:35;;;;;;;8.30;5.60;;;14.20;99.90;;;;;;4848660;29;20189;-95
2021/05/19 08:50:02;;;;;;;7.18;5.50;;;14.20;99.90;;;;;;4845558;29;20240;-95
2021/05/19 08:52:28;;;;;;;6.43;5.50;;;14.10;99.90;;;;;;4844009;29;20268;-95
2021/05/19 08:54:55;;;;;;;6.07;4.90;;;14.20;99.90;;;;;;4847894;29;20197;-96
2021/05/19 08:57:22;;;;;;;5.63;4.68;;;14.50;99.90;;;;;;4844280;29;20170;-96
2021/05/19 08:59:48;;;;;;;7.97;5.60;;;14.50;99.90;;;;;;4844960;29;20589;-95
2021/05/19 09:02:17;;;;;;;8.70;4.88;;;14.50;99.90;;;;;;4846672;29;20205;-96
2021/05/19 09:04:44;;;;;;;6.90;5.15;;;14.40;99.90;;;;;;4851265;29;20646;-95
2021/05/19 09:07:20;;;;;;;27.38;6.15;;;14.20;99.90;;;;;;4848570;29;20205;-94
2021/05/19 09:09:46;;;;;;;5.88;5.03;;;14.00;99.90;;;;;;4849411;29;20577;-95
2021/05/19 09:12:18;;;;;;;7.20;6.25;;;13.80;99.90;;;;;;4850923;29;20201;-93
2021/05/19 09:14:47;;;;;;;10.25;7.32;;;13.70;99.90;;;;;;4848024;29;20189;-94
2021/05/19 09:17:29;;;;;;;11.23;7.30;;;13.50;99.90;;;;;;4850240;29;20203;-95
2021/05/19 09:20:07;;;;;;;7.20;6.50;;;13.30;99.90;;;;;;4846996;29;20274;-95
2021/05/19 09:22:39;;;;;;;9.07;6.70;;;13.30;99.90;;;;;;4845630;29;20264;-96
2021/05/19 09:25:22;;;;;;;8.45;6.50;;;13.50;99.90;;;;;;4851219;29;20178;-95
2021/05/19 09:27:50;;;;;;;7.57;6.75;;;14.00;99.90;;;;;;4848232;29;20177;-93
2021/05/19 09:30:59;;;;;;;7.47;5.53;;;14.20;99.90;;;;;;4848586;29;20174;-94
2021/05/19 09:33:28;;;;;;;6.60;5.13;;;14.20;99.90;;;;;;4794278;29;20811;-94
2021/05/19 09:36:16;;;;;;;8.18;5.10;;;14.20;99.90;;;;;;4798276;29;20269;-94
2021/05/19 09:38:44;;;;;;;5.20;4.70;;;14.20;99.90;;;;;;4800133;29;20258;-94
2021/05/19 09:41:32;;;;;;;5.72;4.85;;;14.20;99.90;;;;;;4798782;29;20260;-94
2021/05/19 09:44:00;;;;;;;10.27;5.68;;;14.10;99.90;;;;;;4804896;29;20217;-94
2021/05/19 09:49:20;;;;;;;7.80;5.93;;;14.10;99.90;;;;;;4849192;29;20229;-93
2021/05/19 09:51:53;;;;;;;71.50;8.43;;;14.00;99.90;;;;;;4850204;29;20185;-93
2021/05/19 09:54:30;;;;;;;15.80;6.57;;;13.90;99.90;;;;;;4848609;29;20195;-93
2021/05/19 09:57:04;;;;;;;12.30;9.13;;;14.10;99.90;;;;;;4846591;29;20196;-95
2021/05/19 09:59:31;;;;;;;11.07;9.55;;;14.40;99.90;;;;;;4848078;29;20261;-94
2021/05/19 10:01:59;;;;;;;5.40;4.53;;;14.90;99.90;;;;;;4851551;29;20257;-95
2021/05/19 10:04:28;;;;;;;5.00;3.40;;;15.30;99.80;;;;;;4852030;29;20587;-93
2021/05/19 10:06:56;;;;;;;7.43;5.10;;;15.30;99.90;;;;;;4850491;29;20173;-95
2021/05/19 10:09:23;;;;;;;8.68;4.93;;;15.50;99.90;;;;;;4846476;29;20189;-95
2021/05/19 10:11:50;;;;;;;6.43;5.15;;;15.70;99.90;;;;;;4848158;29;20193;-95
2021/05/19 10:14:19;;;;;;;3.88;3.50;;;15.80;99.90;;;;;;4847783;29;20174;-96
2021/05/19 10:16:53;;;;;;;6.45;4.13;;;15.80;97.60;;;;;;4851550;29;20530;-94
2021/05/19 10:19:41;;;;;;;5.47;4.55;;;15.30;99.80;;;;;;4848447;29;20561;-95
2021/05/19 10:22:18;;;;;;;6.20;4.90;;;15.10;99.90;;;;;;4848861;29;20264;-94
2021/05/19 10:27:56;;;;;;;7.00;4.43;;;14.90;99.90;;;;;;4846456;29;20719;-96
2021/05/19 10:30:42;;;;;;;6.60;4.60;;;14.80;99.90;;;;;;4829203;29;20206;-93
2021/05/19 10:33:39;;;;;;;4.82;3.70;;;15.20;99.90;;;;;;4829522;29;20212;-94
2021/05/19 10:36:42;;;;;;;5.03;3.90;;;15.10;99.90;;;;;;4829820;29;20210;-95
2021/05/19 10:39:35;;;;;;;4.80;3.58;;;15.00;99.90;;;;;;4829915;29;20282;-94
2021/05/19 10:42:32;;;;;;;3.67;3.38;;;15.30;99.90;;;;;;4830191;29;20216;-95
2021/05/19 10:45:08;;;;;;;4.80;2.80;;;15.70;99.90;;;;;;4834316;29;20180;-94
2021/05/19 10:47:38;;;;;;;3.60;2.80;;;16.00;97.10;;;;;;4828980;29;20242;-94
2021/05/19 10:51:03;;;;;;;4.88;2.42;;;16.10;97.20;;;;;;4831792;29;20213;-94
2021/05/19 11:00:17;;;;;;;4.00;2.67;;;16.30;97.60;;;;;;4828818;29;20289;-95
2021/05/19 11:03:13;;;;;;;3.03;2.67;;;16.40;97.20;;;;;;4827965;29;20210;-96
2021/05/19 11:05:55;;;;;;;3.50;2.83;;;16.60;97.00;;;;;;4821794;29;20199;-94
2021/05/19 11:08:29;;;;;;;3.30;2.30;;;16.50;95.50;;;;;;4829301;29;20208;-95
2021/05/19 11:11:15;;;;;;;3.58;2.60;;;16.60;96.60;;;;;;4830138;29;20196;-95
2021/05/19 11:14:06;;;;;;;3.78;2.55;;;16.80;95.50;;;;;;4827784;29;20200;-96
2021/05/19 11:17:09;;;;;;;5.63;2.22;;;17.00;96.70;;;;;;4833545;29;20228;-96
2021/05/19 11:19:37;;;;;;;2.55;1.75;;;16.90;93.60;;;;;;4818501;29;20248;-96
2021/05/19 11:22:11;;;;;;;7.18;2.33;;;16.70;96.10;;;;;;4830911;29;20233;-96
2021/05/19 11:25:07;;;;;;;3.75;1.85;;;16.50;94.10;;;;;;4831495;29;20182;-94
2021/05/19 11:27:42;;;;;;;2.42;2.22;;;16.20;94.80;;;;;;4830843;29;20201;-96
2021/05/19 11:30:26;;;;;;;8.85;2.55;;;15.90;95.80;;;;;;4829474;29;20232;-96
2021/05/19 11:33:02;;;;;;;2.92;2.60;;;15.80;96.60;;;;;;4833388;29;20201;-96
2021/05/19 11:35:41;;;;;;;3.33;2.40;;;15.70;95.30;;;;;;4829994;29;20641;-96
2021/05/19 11:38:09;;;;;;;4.57;2.70;;;15.60;96.40;;;;;;4829759;29;20184;-96
2021/05/19 11:40:37;;;;;;;5.35;1.77;;;15.70;97.50;;;;;;4830030;29;20260;-96
2021/05/19 11:43:07;;;;;;;4.50;1.80;;;16.00;95.00;;;;;;4830372;29;20255;-96
2021/05/19 11:45:41;;;;;;;3.28;1.50;;;16.40;96.10;;;;;;4829341;29;20173;-95
2021/05/19 11:48:30;;;;;;;2.13;1.60;;;16.40;94.80;;;;;;4831955;29;20212;-95
2021/05/19 11:51:27;;;;;;;1.67;1.30;;;16.40;94.00;;;;;;4794638;29;20200;-95
2021/05/19 11:54:04;;;;;;;1.80;1.30;;;16.30;93.40;;;;;;4817023;29;20209;-95
2021/05/19 11:56:53;;;;;;;2.80;1.30;;;16.70;93.00;;;;;;4837525;29;20177;-95
2021/05/19 11:59:33;;;;;;;6.97;1.30;;;16.80;93.30;;;;;;4837592;29;20174;-95
2021/05/19 12:02:02;;;;;;;1.95;1.30;;;16.60;93.30;;;;;;4836017;29;20188;-96
2021/05/19 12:04:32;;;;;;;2.13;1.50;;;16.60;92.10;;;;;;4831864;29;20231;-95
2021/05/19 12:07:02;;;;;;;2.30;1.52;;;16.80;91.00;;;;;;4833354;29;20192;-95
2021/05/19 12:09:39;;;;;;;4.18;1.50;;;17.00;92.50;;;;;;4830421;29;20201;-94
2021/05/19 12:12:15;;;;;;;4.03;1.80;;;17.10;93.60;;;;;;4833627;29;20197;-95
2021/05/19 12:14:52;;;;;;;3.63;1.23;;;17.30;93.40;;;;;;4830872;29;20177;-96
2021/05/19 12:17:26;;;;;;;4.38;1.25;;;17.50;89.20;;;;;;4829092;29;20245;-96
2021/05/19 12:19:52;;;;;;;6.15;1.40;;;17.50;89.30;;;;;;4830307;29;20638;-95
2021/05/19 12:22:21;;;;;;;2.28;1.60;;;17.60;92.10;;;;;;4833543;29;20275;-95
2021/05/19 12:24:53;;;;;;;2.88;1.10;;;17.80;92.80;;;;;;4830205;29;20183;-96
2021/05/19 12:27:23;;;;;;;2.97;1.20;;;17.90;90.40;;;;;;4828744;29;20196;-96
2021/05/19 12:29:52;;;;;;;1.73;0.95;;;17.70;89.60;;;;;;4829596;29;20208;-96
2021/05/19 12:32:30;;;;;;;1.40;1.20;;;17.40;88.70;;;;;;4830241;29;20741;-96
2021/05/19 12:35:34;;;;;;;1.95;1.10;;;17.10;83.50;;;;;;4829492;29;20233;-96
2021/05/19 12:38:07;;;;;;;2.92;1.10;;;16.70;88.30;;;;;;4828194;29;20221;-96
2021/05/19 12:40:39;;;;;;;1.27;1.00;;;16.50;90.40;;;;;;4829218;29;20252;-96
2021/05/19 12:43:10;;;;;;;1.30;1.20;;;16.40;90.40;;;;;;4830425;29;20197;-96
2021/05/19 12:45:42;;;;;;;1.98;1.08;;;16.40;89.50;;;;;;4828825;29;20185;-95
2021/05/19 12:48:26;;;;;;;2.15;1.30;;;16.30;90.30;;;;;;4829518;29;20183;-96
2021/05/19 12:50:54;;;;;;;3.17;1.38;;;16.20;90.90;;;;;;4830349;29;20226;-96
2021/05/19 12:53:45;;;;;;;4.40;1.40;;;16.10;89.70;;;;;;4827863;29;20244;-95
2021/05/19 12:56:18;;;;;;;2.28;1.10;;;16.00;90.50;;;;;;4828188;29;20169;-94
2021/05/19 13:01:55;;;;;;;6.78;1.10;;;15.90;91.90;;;;;;4844457;29;20263;-96
2021/05/19 13:04:31;;;;;;;1.23;0.93;;;15.90;91.50;;;;;;4828939;29;20223;-95
2021/05/19 13:07:22;;;;;;;1.92;1.13;;;15.90;91.20;;;;;;4830453;29;20177;-95
2021/05/19 13:10:26;;;;;;;2.58;1.13;;;15.90;93.10;;;;;;4824818;29;20222;-96
2021/05/19 13:13:11;;;;;;;1.17;0.85;;;15.90;92.60;;;;;;4827638;29;20197;-95
2021/05/19 13:16:12;;;;;;;1.42;1.08;;;15.90;92.80;;;;;;4841654;29;20250;-94
2021/05/19 13:18:50;;;;;;;1.40;0.77;;;16.00;94.70;;;;;;4827346;29;20334;-95
2021/05/19 13:21:55;;;;;;;3.40;0.93;;;16.10;92.80;;;;;;4827422;29;20196;-95
2021/05/19 13:24:29;;;;;;;0.82;0.40;;;16.30;92.40;;;;;;4827640;29;20228;-96